sensor_id;sensor_type;location;lat;lon;timestamp;P1;durP1;ratioP1;P2;durP2;ratioP2
24813;SDS011;12904;50.088;11.414;2023-04-03T00:00:55;3.22;;;2.25;;
24813;SDS011;12904;50.088;11.414;2023-04-03T00:03:22;8.63;;;2.63;;
24813;SDS011;12904;50.088;11.414;2023-04-03T00:05:48;3.38;;;2.10;;
24813;SDS011;12904;50.088;11.414;2023-04-03T00:08:14;2.40;;;1.80;;
24813;SDS011;12904;50.088;11.414;2023-04-03T00:10:40;3.45;;;1.50;;
24813;SDS011;12904;50.088;11.414;2023-04-03T00:13:06;2.28;;;1.65;;
24813;SDS011;12904;50.088;11.414;2023-04-03T00:15:33;2.85;;;1.88;;
24813;SDS011;12904;50.088;11.414;2023-04-03T00:17:59;4.25;;;1.50;;
24813;SDS011;12904;50.088;11.414;2023-04-03T00:20:25;3.95;;;1.80;;
24813;SDS011;12904;50.088;11.414;2023-04-03T00:22:52;4.18;;;1.48;;
24813;SDS011;12904;50.088;11.414;2023-04-03T00:25:18;3.25;;;1.60;;
24813;SDS011;12904;50.088;11.414;2023-04-03T00:27:44;6.80;;;1.90;;
24813;SDS011;12904;50.088;11.414;2023-04-03T00:30:10;2.42;;;1.65;;
24813;SDS011;12904;50.088;11.414;2023-04-03T00:32:38;3.25;;;2.05;;
24813;SDS011;12904;50.088;11.414;2023-04-03T00:35:04;3.97;;;2.28;;
24813;SDS011;12904;50.088;11.414;2023-04-03T00:37:30;5.63;;;2.08;;
24813;SDS011;12904;50.088;11.414;2023-04-03T00:39:56;3.55;;;2.38;;
24813;SDS011;12904;50.088;11.414;2023-04-03T00:42:21;2.20;;;1.73;;
24813;SDS011;12904;50.088;11.414;2023-04-03T00:45:34;3.53;;;2.38;;
24813;SDS011;12904;50.088;11.414;2023-04-03T00:47:36;2.50;;;1.77;;
24813;SDS011;12904;50.088;11.414;2023-04-03T00:50:04;4.63;;;2.80;;
24813;SDS011;12904;50.088;11.414;2023-04-03T00:52:30;5.63;;;2.40;;
24813;SDS011;12904;50.088;11.414;2023-04-03T00:54:58;3.42;;;2.53;;
24813;SDS011;12904;50.088;11.414;2023-04-03T00:59:56;11.32;;;3.33;;
24813;SDS011;12904;50.088;11.414;2023-04-03T01:02:26;3.13;;;2.30;;
24813;SDS011;12904;50.088;11.414;2023-04-03T01:04:52;3.88;;;2.63;;
24813;SDS011;12904;50.088;11.414;2023-04-03T01:09:47;3.50;;;2.72;;
24813;SDS011;12904;50.088;11.414;2023-04-03T01:12:19;5.88;;;3.10;;
24813;SDS011;12904;50.088;11.414;2023-04-03T01:14:45;5.13;;;2.87;;
24813;SDS011;12904;50.088;11.414;2023-04-03T01:17:30;7.82;;;2.75;;
24813;SDS011;12904;50.088;11.414;2023-04-03T01:22:42;3.28;;;2.83;;
24813;SDS011;12904;50.088;11.414;2023-04-03T01:25:26;4.72;;;2.92;;
24813;SDS011;12904;50.088;11.414;2023-04-03T01:27:52;5.28;;;2.90;;
24813;SDS011;12904;50.088;11.414;2023-04-03T01:30:19;6.68;;;3.17;;
24813;SDS011;12904;50.088;11.414;2023-04-03T01:32:49;4.72;;;2.50;;
24813;SDS011;12904;50.088;11.414;2023-04-03T01:35:14;4.97;;;2.92;;
24813;SDS011;12904;50.088;11.414;2023-04-03T01:37:40;5.82;;;2.95;;
24813;SDS011;12904;50.088;11.414;2023-04-03T01:40:06;4.32;;;2.83;;
24813;SDS011;12904;50.088;11.414;2023-04-03T01:42:33;3.90;;;2.67;;
24813;SDS011;12904;50.088;11.414;2023-04-03T01:44:58;6.15;;;3.15;;
24813;SDS011;12904;50.088;11.414;2023-04-03T01:47:24;5.65;;;3.55;;
24813;SDS011;12904;50.088;11.414;2023-04-03T01:49:50;7.38;;;3.95;;
24813;SDS011;12904;50.088;11.414;2023-04-03T01:52:15;5.20;;;3.38;;
24813;SDS011;12904;50.088;11.414;2023-04-03T01:54:41;6.28;;;2.75;;
24813;SDS011;12904;50.088;11.414;2023-04-03T01:57:07;9.23;;;5.97;;
24813;SDS011;12904;50.088;11.414;2023-04-03T01:59:32;5.35;;;3.33;;
24813;SDS011;12904;50.088;11.414;2023-04-03T02:01:58;8.27;;;3.78;;
24813;SDS011;12904;50.088;11.414;2023-04-03T02:04:24;17.52;;;7.20;;
24813;SDS011;12904;50.088;11.414;2023-04-03T02:06:49;6.72;;;3.28;;
24813;SDS011;12904;50.088;11.414;2023-04-03T02:09:15;11.60;;;4.25;;
24813;SDS011;12904;50.088;11.414;2023-04-03T02:11:40;5.22;;;3.40;;
24813;SDS011;12904;50.088;11.414;2023-04-03T02:14:06;20.65;;;8.88;;
24813;SDS011;12904;50.088;11.414;2023-04-03T02:16:32;26.65;;;10.57;;
24813;SDS011;12904;50.088;11.414;2023-04-03T02:18:57;18.70;;;8.65;;
24813;SDS011;12904;50.088;11.414;2023-04-03T02:21:23;9.90;;;3.38;;
24813;SDS011;12904;50.088;11.414;2023-04-03T02:23:49;4.13;;;2.85;;
24813;SDS011;12904;50.088;11.414;2023-04-03T02:26:15;3.83;;;3.15;;
24813;SDS011;12904;50.088;11.414;2023-04-03T02:28:41;4.18;;;2.72;;
24813;SDS011;12904;50.088;11.414;2023-04-03T02:31:08;6.03;;;2.70;;
24813;SDS011;12904;50.088;11.414;2023-04-03T02:33:35;4.43;;;2.97;;
24813;SDS011;12904;50.088;11.414;2023-04-03T02:36:02;3.78;;;2.53;;
24813;SDS011;12904;50.088;11.414;2023-04-03T02:38:31;9.50;;;2.53;;
24813;SDS011;12904;50.088;11.414;2023-04-03T02:41:00;6.13;;;2.72;;
24813;SDS011;12904;50.088;11.414;2023-04-03T02:43:30;12.23;;;4.30;;
24813;SDS011;12904;50.088;11.414;2023-04-03T02:45:56;4.80;;;2.10;;
24813;SDS011;12904;50.088;11.414;2023-04-03T02:48:22;6.93;;;2.30;;
24813;SDS011;12904;50.088;11.414;2023-04-03T02:50:48;6.95;;;2.80;;
24813;SDS011;12904;50.088;11.414;2023-04-03T02:53:14;9.00;;;4.53;;
24813;SDS011;12904;50.088;11.414;2023-04-03T02:55:40;15.10;;;4.40;;
24813;SDS011;12904;50.088;11.414;2023-04-03T02:58:06;5.88;;;2.63;;
24813;SDS011;12904;50.088;11.414;2023-04-03T03:00:31;4.50;;;2.55;;
24813;SDS011;12904;50.088;11.414;2023-04-03T03:02:57;5.90;;;2.67;;
24813;SDS011;12904;50.088;11.414;2023-04-03T03:05:23;3.05;;;2.25;;
24813;SDS011;12904;50.088;11.414;2023-04-03T03:07:48;2.95;;;2.28;;
24813;SDS011;12904;50.088;11.414;2023-04-03T03:10:14;11.07;;;4.97;;
24813;SDS011;12904;50.088;11.414;2023-04-03T03:12:40;4.35;;;2.53;;
24813;SDS011;12904;50.088;11.414;2023-04-03T03:15:06;6.10;;;3.42;;
24813;SDS011;12904;50.088;11.414;2023-04-03T03:17:32;7.32;;;3.83;;
24813;SDS011;12904;50.088;11.414;2023-04-03T03:19:57;5.78;;;2.58;;
24813;SDS011;12904;50.088;11.414;2023-04-03T03:22:23;6.45;;;4.10;;
24813;SDS011;12904;50.088;11.414;2023-04-03T03:24:49;7.93;;;3.67;;
24813;SDS011;12904;50.088;11.414;2023-04-03T03:27:15;28.40;;;8.65;;
24813;SDS011;12904;50.088;11.414;2023-04-03T03:29:41;5.75;;;3.45;;
24813;SDS011;12904;50.088;11.414;2023-04-03T03:32:07;3.78;;;2.70;;
24813;SDS011;12904;50.088;11.414;2023-04-03T03:34:33;5.25;;;3.60;;
24813;SDS011;12904;50.088;11.414;2023-04-03T03:36:58;5.70;;;3.78;;
24813;SDS011;12904;50.088;11.414;2023-04-03T03:39:24;5.35;;;2.92;;
24813;SDS011;12904;50.088;11.414;2023-04-03T03:41:50;3.92;;;3.28;;
24813;SDS011;12904;50.088;11.414;2023-04-03T03:44:18;4.50;;;2.20;;
24813;SDS011;12904;50.088;11.414;2023-04-03T03:46:44;4.25;;;2.42;;
24813;SDS011;12904;50.088;11.414;2023-04-03T03:49:10;7.30;;;2.67;;
24813;SDS011;12904;50.088;11.414;2023-04-03T03:51:36;5.15;;;2.45;;
24813;SDS011;12904;50.088;11.414;2023-04-03T03:54:02;9.25;;;3.05;;
24813;SDS011;12904;50.088;11.414;2023-04-03T03:56:28;5.57;;;3.05;;
24813;SDS011;12904;50.088;11.414;2023-04-03T03:58:54;7.25;;;3.60;;
24813;SDS011;12904;50.088;11.414;2023-04-03T04:01:21;8.35;;;6.38;;
24813;SDS011;12904;50.088;11.414;2023-04-03T04:03:47;15.07;;;7.65;;
24813;SDS011;12904;50.088;11.414;2023-04-03T04:06:13;7.18;;;5.50;;
24813;SDS011;12904;50.088;11.414;2023-04-03T04:08:39;7.53;;;4.40;;
24813;SDS011;12904;50.088;11.414;2023-04-03T04:11:05;9.00;;;4.70;;
24813;SDS011;12904;50.088;11.414;2023-04-03T04:13:31;5.43;;;3.53;;
24813;SDS011;12904;50.088;11.414;2023-04-03T04:15:56;5.13;;;3.63;;
24813;SDS011;12904;50.088;11.414;2023-04-03T04:18:22;4.47;;;3.55;;
24813;SDS011;12904;50.088;11.414;2023-04-03T04:20:48;4.65;;;2.58;;
24813;SDS011;12904;50.088;11.414;2023-04-03T04:23:15;6.35;;;2.58;;
24813;SDS011;12904;50.088;11.414;2023-04-03T04:25:41;3.88;;;2.50;;
24813;SDS011;12904;50.088;11.414;2023-04-03T04:28:10;5.53;;;3.05;;
24813;SDS011;12904;50.088;11.414;2023-04-03T04:30:36;4.97;;;3.25;;
24813;SDS011;12904;50.088;11.414;2023-04-03T04:33:02;4.68;;;3.03;;
24813;SDS011;12904;50.088;11.414;2023-04-03T04:35:27;3.45;;;2.40;;
24813;SDS011;12904;50.088;11.414;2023-04-03T04:37:53;6.20;;;2.97;;
24813;SDS011;12904;50.088;11.414;2023-04-03T04:40:19;8.90;;;2.95;;
24813;SDS011;12904;50.088;11.414;2023-04-03T04:42:45;8.00;;;4.32;;
24813;SDS011;12904;50.088;11.414;2023-04-03T04:45:10;9.57;;;3.80;;
24813;SDS011;12904;50.088;11.414;2023-04-03T04:47:36;5.85;;;3.17;;
24813;SDS011;12904;50.088;11.414;2023-04-03T04:50:02;7.43;;;4.22;;
24813;SDS011;12904;50.088;11.414;2023-04-03T04:52:28;7.82;;;3.72;;
24813;SDS011;12904;50.088;11.414;2023-04-03T04:54:53;9.15;;;3.50;;
24813;SDS011;12904;50.088;11.414;2023-04-03T04:57:19;5.95;;;3.67;;
24813;SDS011;12904;50.088;11.414;2023-04-03T04:59:45;6.32;;;4.35;;
24813;SDS011;12904;50.088;11.414;2023-04-03T05:02:10;5.32;;;4.30;;
24813;SDS011;12904;50.088;11.414;2023-04-03T05:04:36;6.95;;;4.25;;
24813;SDS011;12904;50.088;11.414;2023-04-03T05:07:02;4.90;;;3.25;;
24813;SDS011;12904;50.088;11.414;2023-04-03T05:09:27;5.13;;;3.65;;
24813;SDS011;12904;50.088;11.414;2023-04-03T05:11:53;8.63;;;4.20;;
24813;SDS011;12904;50.088;11.414;2023-04-03T05:14:19;9.05;;;5.03;;
24813;SDS011;12904;50.088;11.414;2023-04-03T05:16:45;7.32;;;5.10;;
24813;SDS011;12904;50.088;11.414;2023-04-03T05:19:10;11.13;;;6.45;;
24813;SDS011;12904;50.088;11.414;2023-04-03T05:21:36;8.23;;;4.03;;
24813;SDS011;12904;50.088;11.414;2023-04-03T05:24:02;7.70;;;5.30;;
24813;SDS011;12904;50.088;11.414;2023-04-03T05:26:28;10.43;;;5.55;;
24813;SDS011;12904;50.088;11.414;2023-04-03T05:28:55;12.82;;;5.05;;
24813;SDS011;12904;50.088;11.414;2023-04-03T05:31:21;9.38;;;6.07;;
24813;SDS011;12904;50.088;11.414;2023-04-03T05:33:47;7.28;;;5.13;;
24813;SDS011;12904;50.088;11.414;2023-04-03T05:36:12;7.00;;;4.55;;
24813;SDS011;12904;50.088;11.414;2023-04-03T05:38:38;9.60;;;7.28;;
24813;SDS011;12904;50.088;11.414;2023-04-03T05:41:04;8.85;;;5.20;;
24813;SDS011;12904;50.088;11.414;2023-04-03T05:43:30;10.23;;;4.75;;
24813;SDS011;12904;50.088;11.414;2023-04-03T05:45:56;15.30;;;5.72;;
24813;SDS011;12904;50.088;11.414;2023-04-03T05:48:22;9.20;;;5.70;;
24813;SDS011;12904;50.088;11.414;2023-04-03T05:50:47;7.88;;;4.95;;
24813;SDS011;12904;50.088;11.414;2023-04-03T05:53:21;12.80;;;8.00;;
24813;SDS011;12904;50.088;11.414;2023-04-03T05:55:49;10.80;;;5.13;;
24813;SDS011;12904;50.088;11.414;2023-04-03T05:58:15;10.13;;;5.32;;
24813;SDS011;12904;50.088;11.414;2023-04-03T06:00:41;10.10;;;3.90;;
24813;SDS011;12904;50.088;11.414;2023-04-03T06:03:07;5.15;;;4.20;;
24813;SDS011;12904;50.088;11.414;2023-04-03T06:05:32;6.82;;;5.00;;
24813;SDS011;12904;50.088;11.414;2023-04-03T06:07:58;6.50;;;4.72;;
24813;SDS011;12904;50.088;11.414;2023-04-03T06:10:24;4.32;;;3.63;;
24813;SDS011;12904;50.088;11.414;2023-04-03T06:12:50;6.90;;;4.35;;
24813;SDS011;12904;50.088;11.414;2023-04-03T06:15:16;6.47;;;4.25;;
24813;SDS011;12904;50.088;11.414;2023-04-03T06:17:42;5.05;;;4.00;;
24813;SDS011;12904;50.088;11.414;2023-04-03T06:20:08;6.22;;;3.90;;
24813;SDS011;12904;50.088;11.414;2023-04-03T06:22:34;5.50;;;4.07;;
24813;SDS011;12904;50.088;11.414;2023-04-03T06:25:01;10.23;;;4.45;;
24813;SDS011;12904;50.088;11.414;2023-04-03T06:27:26;7.28;;;3.80;;
24813;SDS011;12904;50.088;11.414;2023-04-03T06:29:52;6.60;;;4.95;;
24813;SDS011;12904;50.088;11.414;2023-04-03T06:32:18;5.65;;;5.00;;
24813;SDS011;12904;50.088;11.414;2023-04-03T06:34:43;8.30;;;5.10;;
24813;SDS011;12904;50.088;11.414;2023-04-03T06:37:16;6.63;;;5.00;;
24813;SDS011;12904;50.088;11.414;2023-04-03T06:39:43;6.38;;;4.05;;
24813;SDS011;12904;50.088;11.414;2023-04-03T06:42:10;8.43;;;4.40;;
24813;SDS011;12904;50.088;11.414;2023-04-03T06:44:36;7.45;;;3.80;;
24813;SDS011;12904;50.088;11.414;2023-04-03T06:47:01;8.30;;;4.68;;
24813;SDS011;12904;50.088;11.414;2023-04-03T06:49:27;8.15;;;4.22;;
24813;SDS011;12904;50.088;11.414;2023-04-03T06:51:53;3.30;;;2.83;;
24813;SDS011;12904;50.088;11.414;2023-04-03T06:54:21;8.10;;;3.10;;
24813;SDS011;12904;50.088;11.414;2023-04-03T06:56:47;10.73;;;3.50;;
24813;SDS011;12904;50.088;11.414;2023-04-03T06:59:12;5.60;;;2.90;;
24813;SDS011;12904;50.088;11.414;2023-04-03T07:01:41;11.05;;;3.33;;
24813;SDS011;12904;50.088;11.414;2023-04-03T07:04:07;3.95;;;2.78;;
24813;SDS011;12904;50.088;11.414;2023-04-03T07:06:33;4.95;;;2.90;;
24813;SDS011;12904;50.088;11.414;2023-04-03T07:09:00;5.90;;;3.22;;
24813;SDS011;12904;50.088;11.414;2023-04-03T07:11:26;5.15;;;3.15;;
24813;SDS011;12904;50.088;11.414;2023-04-03T07:13:52;6.20;;;2.95;;
24813;SDS011;12904;50.088;11.414;2023-04-03T07:16:18;4.18;;;2.50;;
24813;SDS011;12904;50.088;11.414;2023-04-03T07:18:44;3.90;;;2.65;;
24813;SDS011;12904;50.088;11.414;2023-04-03T07:21:10;6.57;;;3.13;;
24813;SDS011;12904;50.088;11.414;2023-04-03T07:23:36;6.63;;;2.97;;
24813;SDS011;12904;50.088;11.414;2023-04-03T07:26:02;6.13;;;3.65;;
24813;SDS011;12904;50.088;11.414;2023-04-03T07:28:28;4.78;;;3.78;;
24813;SDS011;12904;50.088;11.414;2023-04-03T07:31:16;3.97;;;3.35;;
24813;SDS011;12904;50.088;11.414;2023-04-03T07:33:41;4.88;;;3.60;;
24813;SDS011;12904;50.088;11.414;2023-04-03T07:36:08;4.68;;;3.05;;
24813;SDS011;12904;50.088;11.414;2023-04-03T07:38:35;3.80;;;2.75;;
24813;SDS011;12904;50.088;11.414;2023-04-03T07:41:02;3.67;;;2.75;;
24813;SDS011;12904;50.088;11.414;2023-04-03T07:43:28;4.43;;;3.58;;
24813;SDS011;12904;50.088;11.414;2023-04-03T07:45:54;6.57;;;2.67;;
24813;SDS011;12904;50.088;11.414;2023-04-03T07:48:20;5.65;;;3.78;;
24813;SDS011;12904;50.088;11.414;2023-04-03T07:50:47;6.55;;;3.85;;
24813;SDS011;12904;50.088;11.414;2023-04-03T07:53:13;5.35;;;3.63;;
24813;SDS011;12904;50.088;11.414;2023-04-03T07:55:39;5.38;;;3.13;;
24813;SDS011;12904;50.088;11.414;2023-04-03T07:58:12;4.30;;;2.33;;
24813;SDS011;12904;50.088;11.414;2023-04-03T08:00:39;4.03;;;3.17;;
24813;SDS011;12904;50.088;11.414;2023-04-03T08:03:05;5.00;;;2.78;;
24813;SDS011;12904;50.088;11.414;2023-04-03T08:05:31;5.60;;;3.47;;
24813;SDS011;12904;50.088;11.414;2023-04-03T08:07:57;5.28;;;2.88;;
24813;SDS011;12904;50.088;11.414;2023-04-03T08:10:22;6.30;;;3.13;;
24813;SDS011;12904;50.088;11.414;2023-04-03T08:12:48;4.82;;;3.15;;
24813;SDS011;12904;50.088;11.414;2023-04-03T08:15:14;3.70;;;2.88;;
24813;SDS011;12904;50.088;11.414;2023-04-03T08:17:41;5.57;;;3.03;;
24813;SDS011;12904;50.088;11.414;2023-04-03T08:20:07;4.47;;;2.90;;
24813;SDS011;12904;50.088;11.414;2023-04-03T08:22:34;4.32;;;2.40;;
24813;SDS011;12904;50.088;11.414;2023-04-03T08:25:00;4.97;;;2.38;;
24813;SDS011;12904;50.088;11.414;2023-04-03T08:27:26;3.72;;;2.63;;
24813;SDS011;12904;50.088;11.414;2023-04-03T08:29:53;3.15;;;1.80;;
24813;SDS011;12904;50.088;11.414;2023-04-03T08:32:19;2.17;;;1.55;;
24813;SDS011;12904;50.088;11.414;2023-04-03T08:34:45;3.13;;;2.42;;
24813;SDS011;12904;50.088;11.414;2023-04-03T08:37:11;3.25;;;1.50;;
24813;SDS011;12904;50.088;11.414;2023-04-03T08:39:37;5.38;;;1.50;;
24813;SDS011;12904;50.088;11.414;2023-04-03T08:42:05;9.63;;;1.70;;
24813;SDS011;12904;50.088;11.414;2023-04-03T08:44:59;2.20;;;1.48;;
24813;SDS011;12904;50.088;11.414;2023-04-03T08:47:42;2.00;;;1.70;;
24813;SDS011;12904;50.088;11.414;2023-04-03T08:50:13;4.68;;;1.75;;
24813;SDS011;12904;50.088;11.414;2023-04-03T08:52:47;2.47;;;1.70;;
24813;SDS011;12904;50.088;11.414;2023-04-03T08:55:28;6.00;;;2.25;;
24813;SDS011;12904;50.088;11.414;2023-04-03T08:58:02;2.65;;;1.63;;
24813;SDS011;12904;50.088;11.414;2023-04-03T09:00:41;3.42;;;2.13;;
24813;SDS011;12904;50.088;11.414;2023-04-03T09:03:11;1.77;;;1.40;;
24813;SDS011;12904;50.088;11.414;2023-04-03T09:05:43;2.25;;;1.63;;
24813;SDS011;12904;50.088;11.414;2023-04-03T09:08:36;1.98;;;1.33;;
24813;SDS011;12904;50.088;11.414;2023-04-03T09:11:24;4.07;;;1.50;;
24813;SDS011;12904;50.088;11.414;2023-04-03T09:13:57;2.85;;;1.35;;
24813;SDS011;12904;50.088;11.414;2023-04-03T09:21:59;5.22;;;1.30;;
24813;SDS011;12904;50.088;11.414;2023-04-03T09:24:41;6.55;;;1.30;;
24813;SDS011;12904;50.088;11.414;2023-04-03T09:27:09;1.52;;;1.00;;
24813;SDS011;12904;50.088;11.414;2023-04-03T09:29:39;3.83;;;1.50;;
24813;SDS011;12904;50.088;11.414;2023-04-03T09:32:27;2.55;;;1.58;;
24813;SDS011;12904;50.088;11.414;2023-04-03T09:34:53;3.15;;;1.30;;
24813;SDS011;12904;50.088;11.414;2023-04-03T09:39:58;4.05;;;1.73;;
24813;SDS011;12904;50.088;11.414;2023-04-03T09:42:24;2.67;;;1.30;;
24813;SDS011;12904;50.088;11.414;2023-04-03T09:44:55;3.03;;;1.48;;
24813;SDS011;12904;50.088;11.414;2023-04-03T09:52:38;3.05;;;1.30;;
24813;SDS011;12904;50.088;11.414;2023-04-03T09:55:08;2.03;;;1.20;;
24813;SDS011;12904;50.088;11.414;2023-04-03T09:57:39;1.95;;;1.40;;
24813;SDS011;12904;50.088;11.414;2023-04-03T10:00:05;2.03;;;1.55;;
24813;SDS011;12904;50.088;11.414;2023-04-03T10:02:44;1.88;;;1.17;;
24813;SDS011;12904;50.088;11.414;2023-04-03T10:10:38;2.33;;;1.25;;
24813;SDS011;12904;50.088;11.414;2023-04-03T10:13:06;2.22;;;1.05;;
24813;SDS011;12904;50.088;11.414;2023-04-03T10:16:00;2.85;;;1.20;;
24813;SDS011;12904;50.088;11.414;2023-04-03T10:20:55;3.65;;;1.80;;
24813;SDS011;12904;50.088;11.414;2023-04-03T10:23:44;2.28;;;1.80;;
24813;SDS011;12904;50.088;11.414;2023-04-03T10:29:42;3.83;;;1.52;;
24813;SDS011;12904;50.088;11.414;2023-04-03T10:35:12;2.92;;;1.85;;
24813;SDS011;12904;50.088;11.414;2023-04-03T10:43:22;2.67;;;1.40;;
24813;SDS011;12904;50.088;11.414;2023-04-03T10:51:00;1.60;;;1.40;;
24813;SDS011;12904;50.088;11.414;2023-04-03T10:58:36;3.78;;;1.70;;
24813;SDS011;12904;50.088;11.414;2023-04-03T11:01:08;3.15;;;1.30;;
24813;SDS011;12904;50.088;11.414;2023-04-03T11:03:41;2.45;;;1.65;;
24813;SDS011;12904;50.088;11.414;2023-04-03T11:06:14;1.38;;;1.10;;
24813;SDS011;12904;50.088;11.414;2023-04-03T11:08:45;3.80;;;1.63;;
24813;SDS011;12904;50.088;11.414;2023-04-03T11:11:16;2.13;;;1.27;;
24813;SDS011;12904;50.088;11.414;2023-04-03T11:13:58;1.52;;;1.00;;
24813;SDS011;12904;50.088;11.414;2023-04-03T11:16:29;2.88;;;1.50;;
24813;SDS011;12904;50.088;11.414;2023-04-03T11:19:03;3.30;;;1.43;;
24813;SDS011;12904;50.088;11.414;2023-04-03T11:21:41;1.92;;;1.25;;
24813;SDS011;12904;50.088;11.414;2023-04-03T11:24:21;1.95;;;1.35;;
24813;SDS011;12904;50.088;11.414;2023-04-03T11:26:52;2.58;;;2.20;;
24813;SDS011;12904;50.088;11.414;2023-04-03T11:29:20;1.75;;;1.02;;
24813;SDS011;12904;50.088;11.414;2023-04-03T11:34:51;9.63;;;5.82;;
24813;SDS011;12904;50.088;11.414;2023-04-03T11:37:39;2.00;;;1.27;;
24813;SDS011;12904;50.088;11.414;2023-04-03T11:42:42;2.45;;;1.58;;
24813;SDS011;12904;50.088;11.414;2023-04-03T11:51:07;1.58;;;1.25;;
24813;SDS011;12904;50.088;11.414;2023-04-03T12:08:29;2.38;;;0.90;;
24813;SDS011;12904;50.088;11.414;2023-04-03T12:16:23;5.35;;;1.85;;
24813;SDS011;12904;50.088;11.414;2023-04-03T12:27:01;4.60;;;1.38;;
24813;SDS011;12904;50.088;11.414;2023-04-03T12:34:42;3.00;;;0.98;;
24813;SDS011;12904;50.088;11.414;2023-04-03T12:40:35;2.60;;;1.20;;
24813;SDS011;12904;50.088;11.414;2023-04-03T12:48:38;1.70;;;1.08;;
24813;SDS011;12904;50.088;11.414;2023-04-03T12:51:43;3.17;;;1.08;;
24813;SDS011;12904;50.088;11.414;2023-04-03T12:57:11;2.38;;;0.90;;
24813;SDS011;12904;50.088;11.414;2023-04-03T12:59:49;2.58;;;1.20;;
24813;SDS011;12904;50.088;11.414;2023-04-03T13:02:17;3.33;;;0.98;;
24813;SDS011;12904;50.088;11.414;2023-04-03T13:04:45;2.00;;;1.00;;
24813;SDS011;12904;50.088;11.414;2023-04-03T13:07:21;2.47;;;2.08;;
24813;SDS011;12904;50.088;11.414;2023-04-03T13:12:55;2.50;;;1.00;;
24813;SDS011;12904;50.088;11.414;2023-04-03T13:15:26;2.22;;;1.00;;
24813;SDS011;12904;50.088;11.414;2023-04-03T13:18:04;2.47;;;1.02;;
24813;SDS011;12904;50.088;11.414;2023-04-03T13:20:31;1.73;;;1.40;;
24813;SDS011;12904;50.088;11.414;2023-04-03T13:23:02;5.32;;;1.20;;
24813;SDS011;12904;50.088;11.414;2023-04-03T13:25:34;3.22;;;1.10;;
24813;SDS011;12904;50.088;11.414;2023-04-03T13:28:05;2.33;;;1.30;;
24813;SDS011;12904;50.088;11.414;2023-04-03T13:30:36;1.88;;;0.90;;
24813;SDS011;12904;50.088;11.414;2023-04-03T13:33:06;6.72;;;1.50;;
24813;SDS011;12904;50.088;11.414;2023-04-03T13:35:45;3.58;;;1.30;;
24813;SDS011;12904;50.088;11.414;2023-04-03T13:38:30;9.43;;;1.10;;
24813;SDS011;12904;50.088;11.414;2023-04-03T13:40:59;2.45;;;0.90;;
24813;SDS011;12904;50.088;11.414;2023-04-03T13:43:30;2.28;;;1.20;;
24813;SDS011;12904;50.088;11.414;2023-04-03T13:48:36;1.77;;;1.13;;
24813;SDS011;12904;50.088;11.414;2023-04-03T13:51:16;1.15;;;0.90;;
24813;SDS011;12904;50.088;11.414;2023-04-03T13:53:52;1.00;;;0.88;;
24813;SDS011;12904;50.088;11.414;2023-04-03T14:01:25;1.60;;;1.00;;
24813;SDS011;12904;50.088;11.414;2023-04-03T14:04:01;1.40;;;0.90;;
24813;SDS011;12904;50.088;11.414;2023-04-03T14:06:36;1.98;;;1.08;;
24813;SDS011;12904;50.088;11.414;2023-04-03T14:09:02;1.63;;;1.27;;
24813;SDS011;12904;50.088;11.414;2023-04-03T14:11:29;3.40;;;0.90;;
24813;SDS011;12904;50.088;11.414;2023-04-03T14:14:00;3.40;;;1.20;;
24813;SDS011;12904;50.088;11.414;2023-04-03T14:16:31;2.97;;;1.00;;
24813;SDS011;12904;50.088;11.414;2023-04-03T14:19:02;0.90;;;0.80;;
24813;SDS011;12904;50.088;11.414;2023-04-03T14:21:28;3.90;;;0.90;;
24813;SDS011;12904;50.088;11.414;2023-04-03T14:23:54;3.17;;;1.00;;
24813;SDS011;12904;50.088;11.414;2023-04-03T14:26:21;1.13;;;0.80;;
24813;SDS011;12904;50.088;11.414;2023-04-03T14:28:50;1.55;;;1.10;;
24813;SDS011;12904;50.088;11.414;2023-04-03T14:31:18;1.52;;;0.90;;
24813;SDS011;12904;50.088;11.414;2023-04-03T14:33:44;2.55;;;1.00;;
24813;SDS011;12904;50.088;11.414;2023-04-03T14:36:17;2.00;;;1.00;;
24813;SDS011;12904;50.088;11.414;2023-04-03T14:38:48;0.80;;;0.77;;
24813;SDS011;12904;50.088;11.414;2023-04-03T14:41:16;7.45;;;1.60;;
24813;SDS011;12904;50.088;11.414;2023-04-03T14:43:44;2.35;;;0.98;;
24813;SDS011;12904;50.088;11.414;2023-04-03T14:46:17;5.95;;;2.53;;
24813;SDS011;12904;50.088;11.414;2023-04-03T14:49:08;1.30;;;1.10;;
24813;SDS011;12904;50.088;11.414;2023-04-03T14:51:39;4.35;;;1.15;;
24813;SDS011;12904;50.088;11.414;2023-04-03T14:54:05;4.63;;;3.38;;
24813;SDS011;12904;50.088;11.414;2023-04-03T14:56:38;7.38;;;2.50;;
24813;SDS011;12904;50.088;11.414;2023-04-03T14:59:04;6.97;;;6.38;;
24813;SDS011;12904;50.088;11.414;2023-04-03T15:04:00;3.38;;;2.78;;
24813;SDS011;12904;50.088;11.414;2023-04-03T15:06:26;1.80;;;1.70;;
24813;SDS011;12904;50.088;11.414;2023-04-03T15:08:51;2.28;;;0.80;;
24813;SDS011;12904;50.088;11.414;2023-04-03T15:11:17;1.42;;;0.80;;
24813;SDS011;12904;50.088;11.414;2023-04-03T15:13:42;1.67;;;1.00;;
24813;SDS011;12904;50.088;11.414;2023-04-03T15:16:15;3.65;;;1.15;;
24813;SDS011;12904;50.088;11.414;2023-04-03T15:22:09;1.33;;;0.77;;
24813;SDS011;12904;50.088;11.414;2023-04-03T15:24:42;1.02;;;0.93;;
24813;SDS011;12904;50.088;11.414;2023-04-03T15:27:09;3.00;;;1.45;;
24813;SDS011;12904;50.088;11.414;2023-04-03T15:29:36;2.42;;;1.30;;
24813;SDS011;12904;50.088;11.414;2023-04-03T15:32:02;1.90;;;1.08;;
24813;SDS011;12904;50.088;11.414;2023-04-03T15:34:28;2.00;;;1.50;;
24813;SDS011;12904;50.088;11.414;2023-04-03T15:36:54;2.22;;;1.00;;
24813;SDS011;12904;50.088;11.414;2023-04-03T15:39:20;2.42;;;1.08;;
24813;SDS011;12904;50.088;11.414;2023-04-03T15:41:47;5.15;;;1.13;;
24813;SDS011;12904;50.088;11.414;2023-04-03T15:44:13;2.75;;;1.08;;
24813;SDS011;12904;50.088;11.414;2023-04-03T15:46:42;1.98;;;0.80;;
24813;SDS011;12904;50.088;11.414;2023-04-03T15:49:08;2.13;;;1.02;;
24813;SDS011;12904;50.088;11.414;2023-04-03T15:51:35;4.28;;;1.80;;
24813;SDS011;12904;50.088;11.414;2023-04-03T15:54:00;3.95;;;1.50;;
24813;SDS011;12904;50.088;11.414;2023-04-03T15:56:26;2.30;;;1.20;;
24813;SDS011;12904;50.088;11.414;2023-04-03T15:58:52;4.25;;;1.75;;
24813;SDS011;12904;50.088;11.414;2023-04-03T16:01:17;2.88;;;0.90;;
24813;SDS011;12904;50.088;11.414;2023-04-03T16:03:43;2.63;;;1.25;;
24813;SDS011;12904;50.088;11.414;2023-04-03T16:06:16;1.23;;;0.90;;
24813;SDS011;12904;50.088;11.414;2023-04-03T16:08:43;1.55;;;1.00;;
24813;SDS011;12904;50.088;11.414;2023-04-03T16:11:11;2.50;;;0.80;;
24813;SDS011;12904;50.088;11.414;2023-04-03T16:13:37;1.48;;;1.08;;
24813;SDS011;12904;50.088;11.414;2023-04-03T16:16:02;1.80;;;1.23;;
24813;SDS011;12904;50.088;11.414;2023-04-03T16:18:29;2.63;;;1.55;;
24813;SDS011;12904;50.088;11.414;2023-04-03T16:20:55;6.50;;;1.88;;
24813;SDS011;12904;50.088;11.414;2023-04-03T16:23:22;2.33;;;1.30;;
24813;SDS011;12904;50.088;11.414;2023-04-03T16:25:48;4.28;;;1.70;;
24813;SDS011;12904;50.088;11.414;2023-04-03T16:28:15;4.20;;;2.20;;
24813;SDS011;12904;50.088;11.414;2023-04-03T16:30:42;4.43;;;2.95;;
24813;SDS011;12904;50.088;11.414;2023-04-03T16:33:12;2.92;;;2.33;;
24813;SDS011;12904;50.088;11.414;2023-04-03T16:35:38;1.45;;;1.33;;
24813;SDS011;12904;50.088;11.414;2023-04-03T16:38:06;3.65;;;1.73;;
24813;SDS011;12904;50.088;11.414;2023-04-03T16:40:32;3.47;;;2.20;;
24813;SDS011;12904;50.088;11.414;2023-04-03T16:42:59;3.58;;;1.88;;
24813;SDS011;12904;50.088;11.414;2023-04-03T16:45:25;2.30;;;0.77;;